createdAt,value
2018-06-25T00:00:48.777Z,15.24
2018-06-25T00:01:48.791Z,15.18
2018-06-25T00:02:48.758Z,15.19
2018-06-25T00:03:48.744Z,15.14
2018-06-25T00:04:48.742Z,15.27
2018-06-25T00:05:48.716Z,15.22
2018-06-25T00:06:48.708Z,15.14
2018-06-25T00:07:48.695Z,15.19
2018-06-25T00:08:48.683Z,15.22
2018-06-25T00:09:48.707Z,15.17
2018-06-25T00:10:48.666Z,15.12
2018-06-25T00:11:48.653Z,15.11
2018-06-25T00:12:48.643Z,15.18
2018-06-25T00:13:48.633Z,15.15
2018-06-25T00:14:48.633Z,15.09
2018-06-25T00:15:48.610Z,15.06
2018-06-25T00:16:48.603Z,15.12
2018-06-25T00:17:48.592Z,15.12
2018-06-25T00:18:48.577Z,15.06
2018-06-25T00:19:48.587Z,15.11
2018-06-25T00:20:48.554Z,15.11
2018-06-25T00:21:48.545Z,15.14
2018-06-25T00:22:48.532Z,15.15
2018-06-25T00:23:48.523Z,15.07
2018-06-25T00:24:48.512Z,15.07
2018-06-25T00:25:48.512Z,15.06
2018-06-25T00:26:48.491Z,15.04
2018-06-25T00:27:48.477Z,15.06
2018-06-25T00:28:48.474Z,15.07
2018-06-25T00:29:48.460Z,14.99
2018-06-25T00:30:48.459Z,15.06
2018-06-25T00:31:48.434Z,15.06
2018-06-25T00:32:48.426Z,15.12
2018-06-25T00:33:48.415Z,15.18
2018-06-25T00:34:48.405Z,15.12
2018-06-25T00:35:48.402Z,15.02
2018-06-25T00:36:48.381Z,15.04
2018-06-25T00:37:48.370Z,14.99
2018-06-25T00:38:48.358Z,15.06
2018-06-25T00:39:48.347Z,14.99
2018-06-25T00:40:48.365Z,14.99
2018-06-25T00:41:48.326Z,14.99
2018-06-25T00:42:48.317Z,15.07
2018-06-25T00:43:48.306Z,15.07
2018-06-25T00:44:48.294Z,15.04
2018-06-25T00:45:48.284Z,15.06
2018-06-25T00:46:48.285Z,15.00
2018-06-25T00:47:48.262Z,14.96
2018-06-25T00:48:48.251Z,14.91
2018-06-25T00:49:48.242Z,14.88
2018-06-25T00:50:48.231Z,14.87
2018-06-25T00:51:48.231Z,14.91
2018-06-25T00:52:48.209Z,14.95
2018-06-25T00:53:48.197Z,14.96
2018-06-25T00:54:48.188Z,14.88
2018-06-25T00:55:48.176Z,14.91
2018-06-25T00:56:48.182Z,14.91
2018-06-25T00:57:48.224Z,14.91
2018-06-25T00:58:48.144Z,14.85
2018-06-25T00:59:48.133Z,14.93
2018-06-25T01:00:48.123Z,14.99
2018-06-25T01:01:48.121Z,14.91
2018-06-25T01:02:48.102Z,14.91
2018-06-25T01:03:48.095Z,14.91
2018-06-25T01:04:48.085Z,14.87
2018-06-25T01:05:48.072Z,14.93
2018-06-25T01:06:48.075Z,14.85
2018-06-25T01:07:48.050Z,14.89
2018-06-25T01:08:48.042Z,14.85
2018-06-25T01:09:48.029Z,14.96
2018-06-25T01:10:48.017Z,14.97
2018-06-25T01:11:48.019Z,14.88
2018-06-25T01:12:47.992Z,15.00
2018-06-25T01:13:47.982Z,14.85
2018-06-25T01:14:47.971Z,14.97
2018-06-25T01:15:47.961Z,14.93
2018-06-25T01:16:47.965Z,14.91
2018-06-25T01:17:47.943Z,14.91
2018-06-25T01:18:47.929Z,15.00
2018-06-25T01:19:47.918Z,14.91
2018-06-25T01:20:47.938Z,14.91
2018-06-25T01:21:47.896Z,14.96
2018-06-25T01:22:47.897Z,15.00
2018-06-25T01:23:47.876Z,14.97
2018-06-25T01:24:47.867Z,15.00
2018-06-25T01:25:47.856Z,14.93
2018-06-25T01:26:47.847Z,15.00
2018-06-25T01:27:47.845Z,15.00
2018-06-25T01:28:47.830Z,15.00
2018-06-25T01:29:47.811Z,14.97
2018-06-25T01:30:47.801Z,14.97
2018-06-25T01:31:47.789Z,14.99
2018-06-25T01:32:47.812Z,15.03
2018-06-25T01:33:47.769Z,15.02
2018-06-25T01:34:47.756Z,15.03
2018-06-25T01:35:47.746Z,15.02
2018-06-25T01:36:47.734Z,14.99
2018-06-25T01:37:47.723Z,14.95
2018-06-25T01:38:47.727Z,15.00
2018-06-25T01:39:47.703Z,15.03
2018-06-25T01:40:47.693Z,15.07
2018-06-25T01:41:47.682Z,15.04
2018-06-25T01:42:47.674Z,14.96
2018-06-25T01:43:47.671Z,15.03
2018-06-25T01:44:47.651Z,15.04
2018-06-25T01:45:47.638Z,15.09
2018-06-25T01:46:47.627Z,15.07
2018-06-25T01:47:47.616Z,15.07
2018-06-25T01:48:47.639Z,15.12
2018-06-25T01:49:47.599Z,15.03
2018-06-25T01:50:47.588Z,15.04
2018-06-25T01:51:47.575Z,15.00
2018-06-25T01:52:47.562Z,15.06
2018-06-25T01:53:47.553Z,15.04
2018-06-25T01:54:47.560Z,14.97
2018-06-25T01:55:47.533Z,14.97
2018-06-25T01:56:47.532Z,15.06
2018-06-25T01:57:47.512Z,14.97
2018-06-25T01:58:47.498Z,15.02
2018-06-25T01:59:47.524Z,15.03
2018-06-25T02:00:47.488Z,15.02
2018-06-25T02:01:47.467Z,15.06
2018-06-25T02:02:47.455Z,14.97
2018-06-25T02:03:47.446Z,15.07
2018-06-25T02:04:47.440Z,15.04
2018-06-25T02:05:47.434Z,14.97
2018-06-25T02:06:47.412Z,15.00
2018-06-25T02:07:47.403Z,14.99
2018-06-25T02:08:47.390Z,14.96
2018-06-25T02:09:47.380Z,14.99
2018-06-25T02:10:47.393Z,15.06
2018-06-25T02:11:47.358Z,15.00
2018-06-25T02:12:47.351Z,15.00
2018-06-25T02:13:47.337Z,15.00
2018-06-25T02:14:47.335Z,14.82
2018-06-25T02:15:47.317Z,14.91
2018-06-25T02:16:47.321Z,14.89
2018-06-25T02:17:47.295Z,14.99
2018-06-25T02:18:47.284Z,14.97
2018-06-25T02:19:47.275Z,15.00
2018-06-25T02:20:47.261Z,14.95
2018-06-25T02:21:47.263Z,15.00
2018-06-25T02:22:47.239Z,14.79
2018-06-25T02:23:47.250Z,14.91
2018-06-25T02:24:47.216Z,14.89
2018-06-25T02:25:47.205Z,14.88
2018-06-25T02:26:47.209Z,14.81
2018-06-25T02:27:47.184Z,14.81
2018-06-25T02:28:47.180Z,14.70
2018-06-25T02:29:47.164Z,14.70
2018-06-25T02:30:47.155Z,14.74
2018-06-25T02:31:47.153Z,14.70
2018-06-25T02:32:47.143Z,14.73
2018-06-25T02:33:47.119Z,14.73
2018-06-25T02:34:47.111Z,14.77
2018-06-25T02:35:47.097Z,14.78
2018-06-25T02:36:47.112Z,14.87
2018-06-25T02:37:47.088Z,14.84
2018-06-25T02:38:47.065Z,14.82
2018-06-25T02:39:47.054Z,14.82
2018-06-25T02:40:47.072Z,14.82
2018-06-25T02:41:47.056Z,14.85
2018-06-25T02:42:47.020Z,14.89
2018-06-25T02:43:47.012Z,14.84
2018-06-25T02:44:47.002Z,14.87
2018-06-25T02:45:46.992Z,14.66
2018-06-25T02:46:46.992Z,14.58
2018-06-25T02:47:46.971Z,14.59
2018-06-25T02:48:46.957Z,14.63
2018-06-25T02:49:46.947Z,14.65
2018-06-25T02:50:46.937Z,14.66
2018-06-25T02:51:46.939Z,14.70
2018-06-25T02:52:46.920Z,14.63
2018-06-25T02:53:46.904Z,14.62
2018-06-25T02:54:46.893Z,14.59
2018-06-25T02:55:46.881Z,14.73
2018-06-25T02:56:46.884Z,14.73
2018-06-25T02:57:46.860Z,14.69
2018-06-25T02:58:46.850Z,14.70
2018-06-25T02:59:46.838Z,14.77
2018-06-25T03:00:46.826Z,14.70
2018-06-25T03:01:46.841Z,14.77
2018-06-25T03:02:46.813Z,14.82
2018-06-25T03:03:46.795Z,14.70
2018-06-25T03:04:46.783Z,14.84
2018-06-25T03:05:46.774Z,14.81
2018-06-25T03:06:46.774Z,14.79
2018-06-25T03:07:46.750Z,14.81
2018-06-25T03:08:46.760Z,14.81
2018-06-25T03:09:46.730Z,14.81
2018-06-25T03:10:46.722Z,14.73
2018-06-25T03:11:46.721Z,14.69
2018-06-25T03:12:46.718Z,14.66
2018-06-25T03:13:46.687Z,14.58
2018-06-25T03:14:46.676Z,14.62
2018-06-25T03:15:46.668Z,14.62
2018-06-25T03:16:46.669Z,14.63
2018-06-25T03:17:46.643Z,14.59
2018-06-25T03:18:46.631Z,14.58
2018-06-25T03:19:46.621Z,14.50
2018-06-25T03:20:46.613Z,14.56
2018-06-25T03:21:46.644Z,14.55
2018-06-25T03:22:46.590Z,14.47
2018-06-25T03:23:46.617Z,14.47
2018-06-25T03:24:46.567Z,14.48
2018-06-25T03:25:46.559Z,14.58
2018-06-25T03:26:46.549Z,14.50
2018-06-25T03:27:46.548Z,14.59
2018-06-25T03:28:46.525Z,14.59
2018-06-25T03:29:46.514Z,14.59
2018-06-25T03:30:46.504Z,14.61
2018-06-25T03:31:46.497Z,14.48
2018-06-25T03:32:46.496Z,14.48
2018-06-25T03:33:46.470Z,14.50
2018-06-25T03:34:46.459Z,14.47
2018-06-25T03:35:46.452Z,14.53
2018-06-25T03:36:46.440Z,14.44
2018-06-25T03:37:46.442Z,14.53
2018-06-25T03:38:46.423Z,14.56
2018-06-25T03:39:46.406Z,14.59
2018-06-25T03:40:46.395Z,14.55
2018-06-25T03:41:46.387Z,14.58
2018-06-25T03:42:46.385Z,14.53
2018-06-25T03:43:46.364Z,14.55
2018-06-25T03:44:46.356Z,14.47
2018-06-25T03:45:46.343Z,14.50
2018-06-25T03:46:46.330Z,14.58
2018-06-25T03:47:46.332Z,14.55
2018-06-25T03:48:46.308Z,14.47
2018-06-25T03:49:46.296Z,14.55
2018-06-25T03:50:46.285Z,14.62
2018-06-25T03:51:46.275Z,14.62
2018-06-25T03:52:46.276Z,14.59
2018-06-25T03:53:46.254Z,14.63
2018-06-25T03:54:46.295Z,14.59
2018-06-25T03:55:46.234Z,14.51
2018-06-25T03:56:46.239Z,14.56
2018-06-25T03:57:46.224Z,14.48
2018-06-25T03:58:46.197Z,14.45
2018-06-25T03:59:46.185Z,14.43
2018-06-25T04:00:46.181Z,14.38
2018-06-25T04:01:46.168Z,14.41
2018-06-25T04:02:46.171Z,14.47
2018-06-25T04:03:46.142Z,14.41
2018-06-25T04:04:46.136Z,14.32
2018-06-25T04:05:46.119Z,14.44
2018-06-25T04:06:46.110Z,14.41
2018-06-25T04:07:46.115Z,14.38
2018-06-25T04:08:46.092Z,14.40
2018-06-25T04:09:46.079Z,14.41
2018-06-25T04:10:46.069Z,14.47
2018-06-25T04:11:46.064Z,14.47
2018-06-25T04:12:46.080Z,14.45
2018-06-25T04:13:46.034Z,14.40
2018-06-25T04:14:46.028Z,14.43
2018-06-25T04:15:46.010Z,14.37
2018-06-25T04:16:46.001Z,14.43
2018-06-25T04:17:46.005Z,14.40
2018-06-25T04:18:45.986Z,14.45
2018-06-25T04:19:45.965Z,14.59
2018-06-25T04:20:46.011Z,14.56
2018-06-25T04:21:45.946Z,14.56
2018-06-25T04:22:45.946Z,14.53
2018-06-25T04:23:45.942Z,14.68
2018-06-25T04:24:45.930Z,14.61
2018-06-25T04:25:45.899Z,14.48
2018-06-25T04:26:45.887Z,14.59
2018-06-25T04:27:45.891Z,14.59
2018-06-25T04:28:45.869Z,14.58
2018-06-25T04:29:45.856Z,14.63
2018-06-25T04:30:45.869Z,14.55
2018-06-25T04:31:45.833Z,14.58
2018-06-25T04:32:45.834Z,14.61
2018-06-25T04:33:45.811Z,14.55
2018-06-25T04:34:45.801Z,14.61
2018-06-25T04:35:45.836Z,14.59
2018-06-25T04:36:45.781Z,14.53
2018-06-25T04:37:45.780Z,14.61
2018-06-25T04:38:45.756Z,14.69
2018-06-25T04:39:45.748Z,14.77
2018-06-25T04:40:45.740Z,14.78
2018-06-25T04:41:45.724Z,14.66
2018-06-25T04:42:45.727Z,14.79
2018-06-25T04:43:45.704Z,14.69
2018-06-25T04:44:45.697Z,14.77
2018-06-25T04:45:45.679Z,14.70
2018-06-25T04:46:45.668Z,14.74
2018-06-25T04:47:46.404Z,14.74
2018-06-25T04:48:45.650Z,14.85
2018-06-25T04:49:45.640Z,14.81
2018-06-25T04:50:45.625Z,14.79
2018-06-25T04:51:45.614Z,14.81
2018-06-25T04:52:45.610Z,14.78
2018-06-25T04:53:45.605Z,14.74
2018-06-25T04:54:45.582Z,14.70
2018-06-25T04:55:45.568Z,14.77
2018-06-25T04:56:45.559Z,14.74
2018-06-25T04:57:45.550Z,14.59
2018-06-25T04:58:45.573Z,14.63
2018-06-25T04:59:45.531Z,14.69
2018-06-25T05:00:45.519Z,14.65
2018-06-25T05:01:45.505Z,14.63
2018-06-25T05:02:45.494Z,14.58
2018-06-25T05:03:45.504Z,14.74
2018-06-25T05:04:45.493Z,14.68
2018-06-25T05:05:45.461Z,14.59
2018-06-25T05:06:45.450Z,14.65
2018-06-25T05:07:45.457Z,14.69
2018-06-25T05:08:45.447Z,14.73
2018-06-25T05:09:45.431Z,14.65
2018-06-25T05:10:45.407Z,14.77
2018-06-25T05:11:45.397Z,14.68
2018-06-25T05:12:45.389Z,14.69
2018-06-25T05:13:45.374Z,14.68
2018-06-25T05:14:45.381Z,14.73
2018-06-25T05:15:45.355Z,14.68
2018-06-25T05:16:45.344Z,14.68
2018-06-25T05:17:45.337Z,14.68
2018-06-25T05:18:45.318Z,14.69
2018-06-25T05:19:45.310Z,14.66
2018-06-25T05:20:45.312Z,14.69
2018-06-25T05:21:45.288Z,14.59
2018-06-25T05:22:45.278Z,14.59
2018-06-25T05:23:45.265Z,14.51
2018-06-25T05:24:45.254Z,14.53
2018-06-25T05:25:45.260Z,14.55
2018-06-25T05:26:45.235Z,14.61
2018-06-25T05:27:45.225Z,14.59
2018-06-25T05:28:45.211Z,14.59
2018-06-25T05:29:45.202Z,14.55
2018-06-25T05:30:45.203Z,14.55
2018-06-25T05:31:45.180Z,14.48
2018-06-25T05:32:45.173Z,14.58
2018-06-25T05:33:45.157Z,14.56
2018-06-25T05:34:45.146Z,14.58
2018-06-25T05:35:45.150Z,14.62
2018-06-25T05:36:45.126Z,14.59
2018-06-25T05:37:45.114Z,14.53
2018-06-25T05:38:45.129Z,14.63
2018-06-25T05:39:45.175Z,14.59
2018-06-25T05:40:45.101Z,14.58
2018-06-25T05:41:45.073Z,14.61
2018-06-25T05:42:45.092Z,14.56
2018-06-25T05:43:45.051Z,14.62
2018-06-25T05:44:45.042Z,14.65
2018-06-25T05:45:45.046Z,14.69
2018-06-25T05:46:45.017Z,14.77
2018-06-25T05:47:45.014Z,14.70
2018-06-25T05:48:45.026Z,14.82
2018-06-25T05:49:44.988Z,14.81
2018-06-25T05:50:44.998Z,14.88
2018-06-25T05:51:44.965Z,14.85
2018-06-25T05:52:44.953Z,14.91
2018-06-25T05:53:44.943Z,14.95
2018-06-25T05:54:44.931Z,14.96
2018-06-25T05:55:44.932Z,15.00
2018-06-25T05:56:44.909Z,15.00
2018-06-25T05:57:44.899Z,15.00
2018-06-25T05:58:44.888Z,14.93
2018-06-25T05:59:44.876Z,15.02
2018-06-25T06:00:44.884Z,14.99
2018-06-25T06:01:44.858Z,15.00
2018-06-25T06:02:44.846Z,15.03
2018-06-25T06:03:44.835Z,15.07
2018-06-25T06:04:44.822Z,15.12
2018-06-25T06:05:44.814Z,15.12
2018-06-25T06:06:44.860Z,15.15
2018-06-25T06:07:44.799Z,15.25
2018-06-25T06:08:44.780Z,15.25
2018-06-25T06:09:44.773Z,15.25
2018-06-25T06:10:44.757Z,15.18
2018-06-25T06:11:44.764Z,15.06
2018-06-25T06:12:44.737Z,15.21
2018-06-25T06:13:44.722Z,15.12
2018-06-25T06:14:44.717Z,15.07
2018-06-25T06:15:44.705Z,14.95
2018-06-25T06:16:44.705Z,14.96
2018-06-25T06:17:44.680Z,14.99
2018-06-25T06:18:44.668Z,15.00
2018-06-25T06:19:44.657Z,15.00
2018-06-25T06:20:44.648Z,14.84
2018-06-25T06:21:44.656Z,14.85
2018-06-25T06:22:44.626Z,14.85
2018-06-25T06:23:44.615Z,14.85
2018-06-25T06:24:44.605Z,14.79
2018-06-25T06:25:44.589Z,14.87
2018-06-25T06:26:44.583Z,14.88
2018-06-25T06:27:44.581Z,14.84
2018-06-25T06:28:44.558Z,14.84
2018-06-25T06:29:44.548Z,14.84
2018-06-25T06:30:44.539Z,14.87
2018-06-25T06:31:44.523Z,14.91
2018-06-25T06:32:44.527Z,14.82
2018-06-25T06:33:44.523Z,14.87
2018-06-25T06:34:44.490Z,14.85
2018-06-25T06:35:44.480Z,14.89
2018-06-25T06:36:44.473Z,15.00
2018-06-25T06:37:44.470Z,14.96
2018-06-25T06:38:44.444Z,14.97
2018-06-25T06:39:44.449Z,14.97
2018-06-25T06:40:44.425Z,14.91
2018-06-25T06:41:44.425Z,14.93
2018-06-25T06:42:44.413Z,14.96
2018-06-25T06:43:44.390Z,15.00
2018-06-25T06:44:44.377Z,15.03
2018-06-25T06:45:44.370Z,15.00
2018-06-25T06:46:44.356Z,15.14
2018-06-25T06:47:44.356Z,15.17
2018-06-25T06:48:44.331Z,15.24
2018-06-25T06:49:44.323Z,15.21
2018-06-25T06:50:44.314Z,15.17
2018-06-25T06:51:44.297Z,15.27
2018-06-25T06:52:44.301Z,15.28
2018-06-25T06:53:44.275Z,15.32
2018-06-25T06:54:44.265Z,15.18
2018-06-25T06:55:44.256Z,15.30
2018-06-25T06:56:44.241Z,15.37
2018-06-25T06:57:44.274Z,15.28
2018-06-25T06:58:44.225Z,15.35
2018-06-25T06:59:44.208Z,15.33
2018-06-25T07:00:44.221Z,15.39
2018-06-25T07:01:44.188Z,15.42
2018-06-25T07:02:44.198Z,15.52
2018-06-25T07:03:44.177Z,15.46
2018-06-25T07:04:44.173Z,15.52
2018-06-25T07:05:44.142Z,15.50
2018-06-25T07:06:44.133Z,15.52
2018-06-25T07:07:44.142Z,15.54
2018-06-25T07:08:44.110Z,15.55
2018-06-25T07:09:44.098Z,15.44
2018-06-25T07:10:44.087Z,15.51
2018-06-25T07:11:44.080Z,15.44
2018-06-25T07:12:44.078Z,15.37
2018-06-25T07:13:44.054Z,15.51
2018-06-25T07:14:44.047Z,15.69
2018-06-25T07:15:44.032Z,15.64
2018-06-25T07:16:44.029Z,15.73
2018-06-25T07:17:44.044Z,15.85
2018-06-25T07:18:44.001Z,16.00
2018-06-25T07:19:43.991Z,15.98
2018-06-25T07:20:44.000Z,16.00
2018-06-25T07:21:43.976Z,15.91
2018-06-25T07:22:43.956Z,15.90
2018-06-25T07:23:43.958Z,15.82
2018-06-25T07:24:43.934Z,15.73
2018-06-25T07:25:43.922Z,15.85
2018-06-25T07:26:43.914Z,15.90
2018-06-25T07:27:44.052Z,16.08
2018-06-25T07:28:43.911Z,16.06
2018-06-25T07:29:43.878Z,16.12
2018-06-25T07:30:43.870Z,16.26
2018-06-25T07:31:43.857Z,16.31
2018-06-25T07:32:43.851Z,16.26
2018-06-25T07:33:43.846Z,16.26
2018-06-25T07:34:43.824Z,16.25
2018-06-25T07:35:43.812Z,16.16
2018-06-25T07:36:43.803Z,16.20
2018-06-25T07:37:43.794Z,16.16
2018-06-25T07:38:43.792Z,16.20
2018-06-25T07:39:43.813Z,16.31
2018-06-25T07:40:43.763Z,16.39
2018-06-25T07:41:43.751Z,16.46
2018-06-25T07:42:43.738Z,16.47
2018-06-25T07:43:43.738Z,16.53
2018-06-25T07:44:43.714Z,16.65
2018-06-25T07:45:43.709Z,16.62
2018-06-25T07:46:43.693Z,16.61
2018-06-25T07:47:43.685Z,16.79
2018-06-25T07:48:43.686Z,16.72
2018-06-25T07:49:43.666Z,16.74
2018-06-25T07:50:43.648Z,16.72
2018-06-25T07:51:43.676Z,16.65
2018-06-25T07:52:43.629Z,16.68
2018-06-25T07:53:43.632Z,16.51
2018-06-25T07:54:43.609Z,16.54
2018-06-25T07:55:43.648Z,16.38
2018-06-25T07:56:43.585Z,16.51
2018-06-25T07:57:43.577Z,16.39
2018-06-25T07:58:43.575Z,16.39
2018-06-25T07:59:43.590Z,16.36
2018-06-25T08:00:43.540Z,16.53
2018-06-25T08:01:43.532Z,16.69
2018-06-25T08:02:43.518Z,16.87
2018-06-25T08:03:43.595Z,16.75
2018-06-25T08:04:43.496Z,16.83
2018-06-25T08:05:43.490Z,16.79
2018-06-25T08:06:43.474Z,16.87
2018-06-25T08:07:43.462Z,16.74
2018-06-25T08:08:43.468Z,16.71
2018-06-25T08:09:43.440Z,16.62
2018-06-25T08:10:43.428Z,16.64
2018-06-25T08:11:43.420Z,16.71
2018-06-25T08:12:43.406Z,16.86
2018-06-25T08:13:43.435Z,17.09
2018-06-25T08:14:43.388Z,17.11
2018-06-25T08:15:43.375Z,17.20
2018-06-25T08:16:43.409Z,17.22
2018-06-25T08:17:43.351Z,17.20
2018-06-25T08:18:43.390Z,17.14
2018-06-25T08:19:43.347Z,17.30
2018-06-25T08:20:43.321Z,17.26
2018-06-25T08:21:43.323Z,17.24
2018-06-25T08:22:43.361Z,17.31
2018-06-25T08:23:43.355Z,17.17
2018-06-25T08:24:43.287Z,17.24
2018-06-25T08:25:43.262Z,17.16
2018-06-25T08:26:43.266Z,17.20
2018-06-25T08:27:43.242Z,17.19
2018-06-25T08:28:43.233Z,17.17
2018-06-25T08:29:43.292Z,17.19
2018-06-25T08:30:43.244Z,17.09
2018-06-25T08:31:43.201Z,17.08
2018-06-25T08:32:43.188Z,17.04
2018-06-25T08:33:43.190Z,17.08
2018-06-25T08:34:43.199Z,16.99
2018-06-25T08:35:43.154Z,17.12
2018-06-25T08:36:43.144Z,17.24
2018-06-25T08:37:43.129Z,17.41
2018-06-25T08:38:43.118Z,17.48
2018-06-25T08:39:43.110Z,17.60
2018-06-25T08:40:43.116Z,17.73
2018-06-25T08:41:43.086Z,17.64
2018-06-25T08:42:43.074Z,17.68
2018-06-25T08:43:43.064Z,17.86
2018-06-25T08:44:43.054Z,17.64
2018-06-25T08:45:43.057Z,17.46
2018-06-25T08:46:43.034Z,17.48
2018-06-25T08:47:43.023Z,17.37
2018-06-25T08:48:43.019Z,17.14
2018-06-25T08:49:43.004Z,17.19
2018-06-25T08:50:42.999Z,17.04
2018-06-25T08:51:43.035Z,17.08
2018-06-25T08:52:42.966Z,17.06
2018-06-25T08:53:42.956Z,16.93
2018-06-25T08:54:42.957Z,16.94
2018-06-25T08:55:42.946Z,16.98
2018-06-25T08:56:42.920Z,16.98
2018-06-25T08:57:42.912Z,16.74
2018-06-25T08:58:42.899Z,16.86
2018-06-25T08:59:42.888Z,16.82
2018-06-25T09:00:42.890Z,16.80
2018-06-25T09:01:42.867Z,16.82
2018-06-25T09:02:42.857Z,16.84
2018-06-25T09:03:42.846Z,16.84
2018-06-25T09:04:42.835Z,16.86
2018-06-25T09:05:42.838Z,16.98
2018-06-25T09:06:42.816Z,16.96
2018-06-25T09:07:42.800Z,16.99
2018-06-25T09:08:42.796Z,17.06
2018-06-25T09:09:42.783Z,17.23
2018-06-25T09:10:42.780Z,17.31
2018-06-25T09:11:42.756Z,17.54
2018-06-25T09:12:43.350Z,18.10
2018-06-25T09:13:42.736Z,19.16
2018-06-25T09:14:42.749Z,19.41
2018-06-25T09:15:42.726Z,19.49
2018-06-25T09:16:42.700Z,19.54
2018-06-25T09:17:42.736Z,19.51
2018-06-25T09:18:42.686Z,19.37
2018-06-25T09:19:42.674Z,19.24
2018-06-25T09:20:42.661Z,19.05
2018-06-25T09:21:42.658Z,18.86
2018-06-25T09:22:42.636Z,18.75
2018-06-25T09:23:42.623Z,18.49
2018-06-25T09:24:42.616Z,18.48
2018-06-25T09:25:42.602Z,18.35
2018-06-25T09:26:42.609Z,18.33
2018-06-25T09:27:42.594Z,18.16
2018-06-25T09:28:42.568Z,18.07
2018-06-25T09:29:42.556Z,18.09
2018-06-25T09:30:42.544Z,18.05
2018-06-25T09:31:42.550Z,18.04
2018-06-25T09:32:42.522Z,18.09
2018-06-25T09:33:42.513Z,18.07
2018-06-25T09:34:42.503Z,18.07
2018-06-25T09:35:42.489Z,17.97
2018-06-25T09:36:42.497Z,17.97
2018-06-25T09:37:42.467Z,17.94
2018-06-25T09:38:42.455Z,17.89
2018-06-25T09:39:42.443Z,17.93
2018-06-25T09:40:42.433Z,17.94
2018-06-25T09:41:42.565Z,17.95
2018-06-25T09:42:42.422Z,17.93
2018-06-25T09:43:42.400Z,17.86
2018-06-25T09:44:42.387Z,17.79
2018-06-25T09:45:42.376Z,17.91
2018-06-25T09:46:42.367Z,17.93
2018-06-25T09:47:42.366Z,17.98
2018-06-25T09:48:42.344Z,18.04
2018-06-25T09:49:42.334Z,17.98
2018-06-25T09:50:42.331Z,18.03
2018-06-25T09:51:42.372Z,17.97
2018-06-25T09:52:42.311Z,17.94
2018-06-25T09:53:42.286Z,17.82
2018-06-25T09:54:42.295Z,17.89
2018-06-25T09:55:42.268Z,17.82
2018-06-25T09:56:42.255Z,17.80
2018-06-25T09:57:42.260Z,17.78
2018-06-25T09:58:42.233Z,17.60
2018-06-25T09:59:42.253Z,17.73
2018-06-25T10:00:42.211Z,17.68
2018-06-25T10:01:42.200Z,17.71
2018-06-25T10:02:42.189Z,17.70
2018-06-25T10:03:42.203Z,17.75
2018-06-25T10:04:42.176Z,17.88
2018-06-25T10:05:42.159Z,17.82
2018-06-25T10:06:42.148Z,17.89
2018-06-25T10:07:42.138Z,17.86
2018-06-25T10:08:42.124Z,17.83
2018-06-25T10:09:42.127Z,17.79
2018-06-25T10:10:42.187Z,17.83
2018-06-25T10:11:42.091Z,17.88
2018-06-25T10:12:42.082Z,17.80
2018-06-25T10:13:42.070Z,17.71
2018-06-25T10:14:42.072Z,17.85
2018-06-25T10:15:42.049Z,17.82
2018-06-25T10:16:42.039Z,17.83
2018-06-25T10:17:42.029Z,17.83
2018-06-25T10:18:42.018Z,17.79
2018-06-25T10:19:42.016Z,17.86
2018-06-25T10:20:41.994Z,17.89
2018-06-25T10:21:41.985Z,18.04
2018-06-25T10:22:41.974Z,18.23
2018-06-25T10:23:41.963Z,18.40
2018-06-25T10:24:41.962Z,18.88
2018-06-25T10:25:41.942Z,19.24
2018-06-25T10:26:41.931Z,19.22
2018-06-25T10:27:41.922Z,19.27
2018-06-25T10:28:41.915Z,19.46
2018-06-25T10:29:41.909Z,19.54
2018-06-25T10:30:41.888Z,19.36
2018-06-25T10:31:41.878Z,19.33
2018-06-25T10:32:41.861Z,19.36
2018-06-25T10:33:41.867Z,19.30
2018-06-25T10:34:41.878Z,19.00
2018-06-25T10:35:41.829Z,18.75
2018-06-25T10:36:41.822Z,18.59
2018-06-25T10:37:41.810Z,18.37
2018-06-25T10:38:41.798Z,18.41
2018-06-25T10:39:41.798Z,18.34
2018-06-25T10:40:41.775Z,18.44
2018-06-25T10:41:41.776Z,18.41
2018-06-25T10:42:41.790Z,18.43
2018-06-25T10:43:41.741Z,18.62
2018-06-25T10:44:41.743Z,18.60
2018-06-25T10:45:41.720Z,18.59
2018-06-25T10:46:41.708Z,18.59
2018-06-25T10:47:41.697Z,18.86
2018-06-25T10:48:41.685Z,19.18
2018-06-25T10:49:41.696Z,20.59
2018-06-25T10:50:41.661Z,20.59
2018-06-25T10:51:41.652Z,21.74
2018-06-25T10:52:41.641Z,22.77
2018-06-25T10:53:41.631Z,23.41
2018-06-25T10:54:41.633Z,23.52
2018-06-25T10:55:41.609Z,23.84
2018-06-25T10:56:41.600Z,23.86
2018-06-25T10:57:41.586Z,23.43
2018-06-25T10:58:41.577Z,22.65
2018-06-25T10:59:41.712Z,22.33
2018-06-25T11:00:41.554Z,22.29
2018-06-25T11:01:41.550Z,21.55
2018-06-25T11:02:41.533Z,21.18
2018-06-25T11:03:41.546Z,21.47
2018-06-25T11:04:41.533Z,21.72
2018-06-25T11:05:41.517Z,21.93
2018-06-25T11:06:41.490Z,21.79
2018-06-25T11:07:41.586Z,21.76
2018-06-25T11:08:41.472Z,21.54
2018-06-25T11:09:41.501Z,21.26
2018-06-25T11:10:41.448Z,20.69
2018-06-25T11:11:41.436Z,20.44
2018-06-25T11:12:41.437Z,20.29
2018-06-25T11:13:41.509Z,20.17
2018-06-25T11:14:41.405Z,20.09
2018-06-25T11:15:41.405Z,19.70
2018-06-25T11:16:41.384Z,19.79
2018-06-25T11:17:41.375Z,19.91
2018-06-25T11:18:41.361Z,19.96
2018-06-25T11:19:41.362Z,20.00
2018-06-25T11:20:41.340Z,20.03
2018-06-25T11:21:41.331Z,20.06
2018-06-25T11:22:41.341Z,20.03
2018-06-25T11:23:41.307Z,20.06
2018-06-25T11:24:41.314Z,20.15
2018-06-25T11:25:41.285Z,20.06
2018-06-25T11:26:41.342Z,20.01
2018-06-25T11:27:41.414Z,20.04
2018-06-25T11:28:41.251Z,20.09
2018-06-25T11:29:41.254Z,20.04
2018-06-25T11:30:41.241Z,20.06
2018-06-25T11:31:41.218Z,19.96
2018-06-25T11:32:41.215Z,19.88
2018-06-25T11:33:41.201Z,20.04
2018-06-25T11:34:41.205Z,19.81
2018-06-25T11:35:41.177Z,19.84
2018-06-25T11:36:41.166Z,19.88
2018-06-25T11:37:41.157Z,19.81
2018-06-25T11:38:41.145Z,19.73
2018-06-25T11:39:41.133Z,19.67
2018-06-25T11:40:41.135Z,19.63
2018-06-25T11:41:41.164Z,19.41
2018-06-25T11:42:41.100Z,19.37
2018-06-25T11:43:41.089Z,19.24
2018-06-25T11:44:41.077Z,19.29
2018-06-25T11:45:41.086Z,19.29
2018-06-25T11:46:41.054Z,19.19
2018-06-25T11:47:41.047Z,18.80
2018-06-25T11:48:41.032Z,18.83
2018-06-25T11:49:41.025Z,18.80
2018-06-25T11:50:41.023Z,18.90
2018-06-25T11:51:41.010Z,18.99
2018-06-25T11:52:41.073Z,19.12
2018-06-25T11:53:41.001Z,19.33
2018-06-25T11:54:40.967Z,19.33
2018-06-25T11:55:40.972Z,19.37
2018-06-25T11:56:40.954Z,19.46
2018-06-25T11:57:40.934Z,19.42
2018-06-25T11:58:40.977Z,19.46
2018-06-25T11:59:40.915Z,19.36
2018-06-25T12:00:40.927Z,19.48
2018-06-25T12:01:40.943Z,19.44
2018-06-25T12:02:41.085Z,19.33
2018-06-25T12:03:40.867Z,19.19
2018-06-25T12:04:40.859Z,19.19
2018-06-25T12:05:40.857Z,19.27
2018-06-25T12:06:40.835Z,19.22
2018-06-25T12:07:40.823Z,19.18
2018-06-25T12:08:40.812Z,19.27
2018-06-25T12:09:40.804Z,19.16
2018-06-25T12:10:40.830Z,19.26
2018-06-25T12:11:40.780Z,19.16
2018-06-25T12:12:40.768Z,19.19
2018-06-25T12:13:40.757Z,19.05
2018-06-25T12:14:40.746Z,19.04
2018-06-25T12:15:40.752Z,19.08
2018-06-25T12:16:40.732Z,19.22
2018-06-25T12:17:40.712Z,19.27
2018-06-25T12:18:40.724Z,19.31
2018-06-25T12:19:40.693Z,19.29
2018-06-25T12:20:40.684Z,19.29
2018-06-25T12:21:40.682Z,19.33
2018-06-25T12:22:40.657Z,19.33
2018-06-25T12:23:40.660Z,19.26
2018-06-25T12:24:40.647Z,19.31
2018-06-25T12:25:40.632Z,19.27
2018-06-25T12:26:40.630Z,19.45
2018-06-25T12:27:40.628Z,19.37
2018-06-25T12:28:40.593Z,19.31
2018-06-25T12:29:40.590Z,19.37
2018-06-25T12:30:40.569Z,19.41
2018-06-25T12:31:40.573Z,19.29
2018-06-25T12:32:40.549Z,19.30
2018-06-25T12:33:40.541Z,19.23
2018-06-25T12:34:40.528Z,19.24
2018-06-25T12:35:40.516Z,19.22
2018-06-25T12:36:40.539Z,19.27
2018-06-25T12:37:40.542Z,19.34
2018-06-25T12:38:40.486Z,19.30
2018-06-25T12:39:40.507Z,19.41
2018-06-25T12:40:40.460Z,19.39
2018-06-25T12:41:40.465Z,19.52
2018-06-25T12:42:40.437Z,19.60
2018-06-25T12:43:40.426Z,19.66
2018-06-25T12:44:40.416Z,19.92
2018-06-25T12:45:40.405Z,20.00
2018-06-25T12:46:40.406Z,20.21
2018-06-25T12:47:40.384Z,20.37
2018-06-25T12:48:40.375Z,20.43
2018-06-25T12:49:40.360Z,20.39
2018-06-25T12:50:40.350Z,20.53
2018-06-25T12:51:40.371Z,20.37
2018-06-25T12:52:40.335Z,20.31